sensor_id;sensor_type;location;lat;lon;timestamp;P1;durP1;ratioP1;P2;durP2;ratioP2
14292;SDS011;62290;59.420;17.842;2022-12-29T00:02:26;0.63;;;0.60;;
14292;SDS011;62290;59.420;17.842;2022-12-29T00:04:54;8.68;;;1.05;;
14292;SDS011;62290;59.420;17.842;2022-12-29T00:07:22;1.05;;;0.70;;
14292;SDS011;62290;59.420;17.842;2022-12-29T00:09:51;0.90;;;0.65;;
14292;SDS011;62290;59.420;17.842;2022-12-29T00:12:18;1.55;;;1.25;;
14292;SDS011;62290;59.420;17.842;2022-12-29T00:14:48;2.00;;;0.60;;
14292;SDS011;62290;59.420;17.842;2022-12-29T00:17:34;0.88;;;0.80;;
14292;SDS011;62290;59.420;17.842;2022-12-29T00:20:02;0.70;;;0.60;;
14292;SDS011;62290;59.420;17.842;2022-12-29T00:22:49;1.45;;;0.70;;
14292;SDS011;62290;59.420;17.842;2022-12-29T00:25:35;1.20;;;0.60;;
14292;SDS011;62290;59.420;17.842;2022-12-29T00:28:21;1.00;;;0.80;;
14292;SDS011;62290;59.420;17.842;2022-12-29T00:31:08;0.80;;;0.60;;
14292;SDS011;62290;59.420;17.842;2022-12-29T00:33:57;0.70;;;0.50;;
14292;SDS011;62290;59.420;17.842;2022-12-29T00:36:43;2.30;;;0.80;;
14292;SDS011;62290;59.420;17.842;2022-12-29T00:39:12;0.98;;;0.60;;
14292;SDS011;62290;59.420;17.842;2022-12-29T00:42:02;0.80;;;0.60;;
14292;SDS011;62290;59.420;17.842;2022-12-29T00:44:48;1.15;;;0.57;;
14292;SDS011;62290;59.420;17.842;2022-12-29T00:47:17;0.98;;;0.70;;
14292;SDS011;62290;59.420;17.842;2022-12-29T00:49:45;0.70;;;0.50;;
14292;SDS011;62290;59.420;17.842;2022-12-29T00:52:12;0.73;;;0.55;;
14292;SDS011;62290;59.420;17.842;2022-12-29T00:54:44;0.30;;;0.30;;
14292;SDS011;62290;59.420;17.842;2022-12-29T00:57:12;0.70;;;0.60;;
14292;SDS011;62290;59.420;17.842;2022-12-29T00:59:40;0.55;;;0.40;;
14292;SDS011;62290;59.420;17.842;2022-12-29T01:02:09;1.85;;;0.50;;
14292;SDS011;62290;59.420;17.842;2022-12-29T01:04:39;1.10;;;0.70;;
14292;SDS011;62290;59.420;17.842;2022-12-29T01:07:07;0.63;;;0.50;;
14292;SDS011;62290;59.420;17.842;2022-12-29T01:09:36;0.52;;;0.52;;
14292;SDS011;62290;59.420;17.842;2022-12-29T01:12:21;0.50;;;0.40;;
14292;SDS011;62290;59.420;17.842;2022-12-29T01:15:04;0.30;;;0.30;;
14292;SDS011;62290;59.420;17.842;2022-12-29T01:17:33;0.70;;;0.55;;
14292;SDS011;62290;59.420;17.842;2022-12-29T01:20:02;1.27;;;0.60;;
14292;SDS011;62290;59.420;17.842;2022-12-29T01:22:31;0.90;;;0.57;;
14292;SDS011;62290;59.420;17.842;2022-12-29T01:24:59;0.50;;;0.50;;
14292;SDS011;62290;59.420;17.842;2022-12-29T01:27:27;0.60;;;0.60;;
14292;SDS011;62290;59.420;17.842;2022-12-29T01:29:55;0.50;;;0.50;;
14292;SDS011;62290;59.420;17.842;2022-12-29T01:32:23;0.40;;;0.40;;
14292;SDS011;62290;59.420;17.842;2022-12-29T01:34:51;0.60;;;0.60;;
14292;SDS011;62290;59.420;17.842;2022-12-29T01:37:20;0.43;;;0.43;;
14292;SDS011;62290;59.420;17.842;2022-12-29T01:39:49;0.65;;;0.65;;
14292;SDS011;62290;59.420;17.842;2022-12-29T01:42:18;1.83;;;0.52;;
14292;SDS011;62290;59.420;17.842;2022-12-29T01:44:49;0.73;;;0.60;;
14292;SDS011;62290;59.420;17.842;2022-12-29T01:47:20;0.90;;;0.50;;
14292;SDS011;62290;59.420;17.842;2022-12-29T01:49:54;0.88;;;0.50;;
14292;SDS011;62290;59.420;17.842;2022-12-29T01:52:26;0.65;;;0.50;;
14292;SDS011;62290;59.420;17.842;2022-12-29T01:54:57;0.60;;;0.60;;
14292;SDS011;62290;59.420;17.842;2022-12-29T01:57:27;0.55;;;0.55;;
14292;SDS011;62290;59.420;17.842;2022-12-29T02:00:00;0.60;;;0.60;;
14292;SDS011;62290;59.420;17.842;2022-12-29T02:02:38;1.98;;;0.60;;
14292;SDS011;62290;59.420;17.842;2022-12-29T02:05:09;0.60;;;0.60;;
14292;SDS011;62290;59.420;17.842;2022-12-29T02:07:45;0.70;;;0.60;;
14292;SDS011;62290;59.420;17.842;2022-12-29T02:10:16;0.70;;;0.70;;
14292;SDS011;62290;59.420;17.842;2022-12-29T02:12:46;0.77;;;0.60;;
14292;SDS011;62290;59.420;17.842;2022-12-29T02:15:15;0.60;;;0.60;;
14292;SDS011;62290;59.420;17.842;2022-12-29T02:17:49;0.80;;;0.80;;
14292;SDS011;62290;59.420;17.842;2022-12-29T02:26:44;0.88;;;0.70;;
14292;SDS011;62290;59.420;17.842;2022-12-29T02:32:28;1.02;;;0.80;;
14292;SDS011;62290;59.420;17.842;2022-12-29T02:35:05;0.65;;;0.60;;
14292;SDS011;62290;59.420;17.842;2022-12-29T02:37:44;0.90;;;0.60;;
14292;SDS011;62290;59.420;17.842;2022-12-29T02:40:24;0.80;;;0.70;;
14292;SDS011;62290;59.420;17.842;2022-12-29T02:43:06;0.98;;;0.77;;
14292;SDS011;62290;59.420;17.842;2022-12-29T02:45:47;0.75;;;0.75;;
14292;SDS011;62290;59.420;17.842;2022-12-29T02:48:28;1.52;;;0.70;;
14292;SDS011;62290;59.420;17.842;2022-12-29T02:51:06;0.73;;;0.73;;
14292;SDS011;62290;59.420;17.842;2022-12-29T02:53:38;0.60;;;0.60;;
14292;SDS011;62290;59.420;17.842;2022-12-29T02:56:24;1.42;;;0.68;;
14292;SDS011;62290;59.420;17.842;2022-12-29T02:58:52;1.10;;;0.75;;
14292;SDS011;62290;59.420;17.842;2022-12-29T03:01:27;0.63;;;0.63;;
14292;SDS011;62290;59.420;17.842;2022-12-29T03:04:13;0.60;;;0.60;;
14292;SDS011;62290;59.420;17.842;2022-12-29T03:07:01;0.70;;;0.52;;
14292;SDS011;62290;59.420;17.842;2022-12-29T03:09:41;0.55;;;0.55;;
14292;SDS011;62290;59.420;17.842;2022-12-29T03:12:23;0.52;;;0.52;;
14292;SDS011;62290;59.420;17.842;2022-12-29T03:15:16;0.60;;;0.60;;
14292;SDS011;62290;59.420;17.842;2022-12-29T03:18:08;0.50;;;0.50;;
14292;SDS011;62290;59.420;17.842;2022-12-29T03:20:45;0.63;;;0.63;;
14292;SDS011;62290;59.420;17.842;2022-12-29T03:23:18;0.55;;;0.55;;
14292;SDS011;62290;59.420;17.842;2022-12-29T03:25:48;1.75;;;0.50;;
14292;SDS011;62290;59.420;17.842;2022-12-29T03:28:22;1.00;;;0.75;;
14292;SDS011;62290;59.420;17.842;2022-12-29T03:30:53;0.80;;;0.70;;
14292;SDS011;62290;59.420;17.842;2022-12-29T03:33:23;1.17;;;0.68;;
14292;SDS011;62290;59.420;17.842;2022-12-29T03:35:59;1.00;;;0.75;;
14292;SDS011;62290;59.420;17.842;2022-12-29T03:38:31;2.63;;;0.80;;
14292;SDS011;62290;59.420;17.842;2022-12-29T03:41:06;1.63;;;0.70;;
14292;SDS011;62290;59.420;17.842;2022-12-29T03:43:39;0.73;;;0.70;;
14292;SDS011;62290;59.420;17.842;2022-12-29T03:46:08;1.40;;;0.75;;
14292;SDS011;62290;59.420;17.842;2022-12-29T03:48:38;1.10;;;0.80;;
14292;SDS011;62290;59.420;17.842;2022-12-29T03:51:09;1.25;;;0.90;;
14292;SDS011;62290;59.420;17.842;2022-12-29T03:53:38;1.10;;;1.00;;
14292;SDS011;62290;59.420;17.842;2022-12-29T03:56:07;1.15;;;0.82;;
14292;SDS011;62290;59.420;17.842;2022-12-29T03:58:35;1.02;;;0.90;;
14292;SDS011;62290;59.420;17.842;2022-12-29T04:01:07;1.02;;;0.90;;
14292;SDS011;62290;59.420;17.842;2022-12-29T04:03:37;0.93;;;0.73;;
14292;SDS011;62290;59.420;17.842;2022-12-29T04:06:06;1.33;;;1.08;;
14292;SDS011;62290;59.420;17.842;2022-12-29T04:08:43;1.20;;;1.10;;
14292;SDS011;62290;59.420;17.842;2022-12-29T04:11:11;0.90;;;0.90;;
14292;SDS011;62290;59.420;17.842;2022-12-29T04:13:40;2.72;;;0.90;;
14292;SDS011;62290;59.420;17.842;2022-12-29T04:16:12;1.42;;;1.20;;
14292;SDS011;62290;59.420;17.842;2022-12-29T04:18:41;1.42;;;1.05;;
14292;SDS011;62290;59.420;17.842;2022-12-29T04:21:09;1.02;;;0.90;;
14292;SDS011;62290;59.420;17.842;2022-12-29T04:23:39;0.88;;;0.80;;
14292;SDS011;62290;59.420;17.842;2022-12-29T04:26:10;1.55;;;1.00;;
14292;SDS011;62290;59.420;17.842;2022-12-29T04:28:50;0.77;;;0.77;;
14292;SDS011;62290;59.420;17.842;2022-12-29T04:31:41;2.22;;;1.38;;
14292;SDS011;62290;59.420;17.842;2022-12-29T04:34:10;1.20;;;1.00;;
14292;SDS011;62290;59.420;17.842;2022-12-29T04:36:37;0.95;;;0.80;;
14292;SDS011;62290;59.420;17.842;2022-12-29T04:39:06;2.13;;;0.80;;
14292;SDS011;62290;59.420;17.842;2022-12-29T04:41:38;1.30;;;1.00;;
14292;SDS011;62290;59.420;17.842;2022-12-29T04:44:11;1.00;;;0.90;;
14292;SDS011;62290;59.420;17.842;2022-12-29T04:46:57;4.07;;;0.70;;
14292;SDS011;62290;59.420;17.842;2022-12-29T04:49:48;2.53;;;0.77;;
14292;SDS011;62290;59.420;17.842;2022-12-29T04:52:34;2.28;;;0.77;;
14292;SDS011;62290;59.420;17.842;2022-12-29T04:55:03;0.80;;;0.60;;
14292;SDS011;62290;59.420;17.842;2022-12-29T04:57:34;0.88;;;0.73;;
14292;SDS011;62290;59.420;17.842;2022-12-29T05:00:02;2.38;;;0.73;;
14292;SDS011;62290;59.420;17.842;2022-12-29T05:02:34;1.05;;;0.75;;
14292;SDS011;62290;59.420;17.842;2022-12-29T05:05:03;0.63;;;0.60;;
14292;SDS011;62290;59.420;17.842;2022-12-29T05:07:34;1.20;;;0.40;;
14292;SDS011;62290;59.420;17.842;2022-12-29T05:10:03;1.27;;;0.57;;
14292;SDS011;62290;59.420;17.842;2022-12-29T05:12:35;0.80;;;0.60;;
14292;SDS011;62290;59.420;17.842;2022-12-29T05:15:06;1.17;;;0.50;;
14292;SDS011;62290;59.420;17.842;2022-12-29T05:17:37;1.13;;;0.60;;
14292;SDS011;62290;59.420;17.842;2022-12-29T05:20:07;0.50;;;0.50;;
14292;SDS011;62290;59.420;17.842;2022-12-29T05:22:36;1.10;;;0.60;;
14292;SDS011;62290;59.420;17.842;2022-12-29T05:25:05;0.65;;;0.55;;
14292;SDS011;62290;59.420;17.842;2022-12-29T05:27:46;1.30;;;0.70;;
14292;SDS011;62290;59.420;17.842;2022-12-29T05:30:23;0.98;;;0.50;;
14292;SDS011;62290;59.420;17.842;2022-12-29T05:32:52;0.75;;;0.65;;
14292;SDS011;62290;59.420;17.842;2022-12-29T05:35:20;0.82;;;0.60;;
14292;SDS011;62290;59.420;17.842;2022-12-29T05:37:48;2.67;;;0.88;;
14292;SDS011;62290;59.420;17.842;2022-12-29T05:40:16;0.82;;;0.60;;
14292;SDS011;62290;59.420;17.842;2022-12-29T05:42:45;1.67;;;0.40;;
14292;SDS011;62290;59.420;17.842;2022-12-29T05:45:32;1.05;;;0.60;;
14292;SDS011;62290;59.420;17.842;2022-12-29T05:48:13;1.45;;;0.60;;
14292;SDS011;62290;59.420;17.842;2022-12-29T05:51:00;1.02;;;0.55;;
14292;SDS011;62290;59.420;17.842;2022-12-29T05:53:46;0.75;;;0.60;;
14292;SDS011;62290;59.420;17.842;2022-12-29T05:56:14;0.85;;;0.60;;
14292;SDS011;62290;59.420;17.842;2022-12-29T05:58:46;2.67;;;0.55;;
14292;SDS011;62290;59.420;17.842;2022-12-29T06:01:15;1.13;;;0.70;;
14292;SDS011;62290;59.420;17.842;2022-12-29T06:03:44;1.33;;;0.77;;
14292;SDS011;62290;59.420;17.842;2022-12-29T06:06:14;0.98;;;0.60;;
14292;SDS011;62290;59.420;17.842;2022-12-29T06:08:43;0.73;;;0.60;;
14292;SDS011;62290;59.420;17.842;2022-12-29T06:11:12;0.75;;;0.55;;
14292;SDS011;62290;59.420;17.842;2022-12-29T06:13:49;1.40;;;0.73;;
14292;SDS011;62290;59.420;17.842;2022-12-29T06:16:17;1.15;;;0.68;;
14292;SDS011;62290;59.420;17.842;2022-12-29T06:18:47;0.73;;;0.50;;
14292;SDS011;62290;59.420;17.842;2022-12-29T06:21:15;0.70;;;0.50;;
14292;SDS011;62290;59.420;17.842;2022-12-29T06:23:45;1.60;;;0.60;;
14292;SDS011;62290;59.420;17.842;2022-12-29T06:26:13;0.80;;;0.68;;
14292;SDS011;62290;59.420;17.842;2022-12-29T06:28:42;2.97;;;0.45;;
14292;SDS011;62290;59.420;17.842;2022-12-29T06:31:11;1.17;;;0.50;;
14292;SDS011;62290;59.420;17.842;2022-12-29T06:33:39;0.93;;;0.70;;
14292;SDS011;62290;59.420;17.842;2022-12-29T06:36:09;0.82;;;0.55;;
14292;SDS011;62290;59.420;17.842;2022-12-29T06:38:37;0.65;;;0.50;;
14292;SDS011;62290;59.420;17.842;2022-12-29T06:41:05;0.75;;;0.47;;
14292;SDS011;62290;59.420;17.842;2022-12-29T06:43:55;0.93;;;0.80;;
14292;SDS011;62290;59.420;17.842;2022-12-29T06:46:36;1.05;;;0.70;;
14292;SDS011;62290;59.420;17.842;2022-12-29T06:49:04;0.95;;;0.60;;
14292;SDS011;62290;59.420;17.842;2022-12-29T06:51:32;1.05;;;0.55;;
14292;SDS011;62290;59.420;17.842;2022-12-29T06:54:00;1.85;;;0.80;;
14292;SDS011;62290;59.420;17.842;2022-12-29T06:56:28;1.10;;;0.77;;
14292;SDS011;62290;59.420;17.842;2022-12-29T06:58:56;0.60;;;0.60;;
14292;SDS011;62290;59.420;17.842;2022-12-29T07:01:26;0.50;;;0.50;;
14292;SDS011;62290;59.420;17.842;2022-12-29T07:03:56;1.25;;;0.77;;
14292;SDS011;62290;59.420;17.842;2022-12-29T07:06:24;0.80;;;0.60;;
14292;SDS011;62290;59.420;17.842;2022-12-29T07:08:51;0.77;;;0.65;;
14292;SDS011;62290;59.420;17.842;2022-12-29T07:11:21;0.80;;;0.75;;
14292;SDS011;62290;59.420;17.842;2022-12-29T07:13:49;1.27;;;0.65;;
14292;SDS011;62290;59.420;17.842;2022-12-29T07:16:17;1.02;;;0.60;;
14292;SDS011;62290;59.420;17.842;2022-12-29T07:18:46;1.80;;;0.60;;
14292;SDS011;62290;59.420;17.842;2022-12-29T07:21:16;0.68;;;0.50;;
14292;SDS011;62290;59.420;17.842;2022-12-29T07:23:43;1.23;;;0.55;;
14292;SDS011;62290;59.420;17.842;2022-12-29T07:26:12;0.70;;;0.63;;
14292;SDS011;62290;59.420;17.842;2022-12-29T07:28:44;0.63;;;0.45;;
14292;SDS011;62290;59.420;17.842;2022-12-29T07:31:12;0.68;;;0.65;;
14292;SDS011;62290;59.420;17.842;2022-12-29T07:33:42;0.57;;;0.52;;
14292;SDS011;62290;59.420;17.842;2022-12-29T07:36:11;0.65;;;0.60;;
14292;SDS011;62290;59.420;17.842;2022-12-29T07:38:41;1.65;;;0.90;;
14292;SDS011;62290;59.420;17.842;2022-12-29T07:41:09;1.45;;;0.80;;
14292;SDS011;62290;59.420;17.842;2022-12-29T07:43:38;1.77;;;0.73;;
14292;SDS011;62290;59.420;17.842;2022-12-29T07:46:22;0.90;;;0.80;;
14292;SDS011;62290;59.420;17.842;2022-12-29T07:49:10;1.17;;;0.90;;
14292;SDS011;62290;59.420;17.842;2022-12-29T07:51:39;1.00;;;0.85;;
14292;SDS011;62290;59.420;17.842;2022-12-29T07:54:09;1.38;;;0.90;;
14292;SDS011;62290;59.420;17.842;2022-12-29T07:56:38;0.95;;;0.90;;
14292;SDS011;62290;59.420;17.842;2022-12-29T07:59:06;1.15;;;0.60;;
14292;SDS011;62290;59.420;17.842;2022-12-29T08:01:34;1.10;;;0.80;;
14292;SDS011;62290;59.420;17.842;2022-12-29T08:04:03;1.30;;;0.98;;
14292;SDS011;62290;59.420;17.842;2022-12-29T08:06:31;0.82;;;0.70;;
14292;SDS011;62290;59.420;17.842;2022-12-29T08:08:59;0.75;;;0.70;;
14292;SDS011;62290;59.420;17.842;2022-12-29T08:11:40;0.80;;;0.70;;
14292;SDS011;62290;59.420;17.842;2022-12-29T08:14:09;1.00;;;0.80;;
14292;SDS011;62290;59.420;17.842;2022-12-29T08:16:37;0.95;;;0.80;;
14292;SDS011;62290;59.420;17.842;2022-12-29T08:19:05;1.33;;;0.98;;
14292;SDS011;62290;59.420;17.842;2022-12-29T08:21:33;1.15;;;0.77;;
14292;SDS011;62290;59.420;17.842;2022-12-29T08:24:01;1.77;;;0.90;;
14292;SDS011;62290;59.420;17.842;2022-12-29T08:26:29;1.40;;;0.80;;
14292;SDS011;62290;59.420;17.842;2022-12-29T08:28:59;1.85;;;1.13;;
14292;SDS011;62290;59.420;17.842;2022-12-29T08:31:27;2.35;;;0.82;;
14292;SDS011;62290;59.420;17.842;2022-12-29T08:33:55;1.58;;;0.93;;
14292;SDS011;62290;59.420;17.842;2022-12-29T08:36:23;2.42;;;0.77;;
14292;SDS011;62290;59.420;17.842;2022-12-29T08:38:51;1.75;;;1.10;;
14292;SDS011;62290;59.420;17.842;2022-12-29T08:41:19;1.27;;;0.90;;
14292;SDS011;62290;59.420;17.842;2022-12-29T08:43:49;1.85;;;1.00;;
14292;SDS011;62290;59.420;17.842;2022-12-29T08:46:18;0.90;;;0.75;;
14292;SDS011;62290;59.420;17.842;2022-12-29T08:48:46;1.88;;;0.70;;
14292;SDS011;62290;59.420;17.842;2022-12-29T08:51:14;1.08;;;0.70;;
14292;SDS011;62290;59.420;17.842;2022-12-29T08:53:49;1.35;;;0.80;;
14292;SDS011;62290;59.420;17.842;2022-12-29T08:56:18;0.98;;;0.60;;
14292;SDS011;62290;59.420;17.842;2022-12-29T08:58:49;1.60;;;0.80;;
14292;SDS011;62290;59.420;17.842;2022-12-29T09:01:20;1.35;;;0.65;;
14292;SDS011;62290;59.420;17.842;2022-12-29T09:03:49;1.73;;;0.95;;
14292;SDS011;62290;59.420;17.842;2022-12-29T09:06:37;3.35;;;0.70;;
14292;SDS011;62290;59.420;17.842;2022-12-29T09:09:06;1.45;;;0.70;;
14292;SDS011;62290;59.420;17.842;2022-12-29T09:11:34;2.15;;;0.50;;
14292;SDS011;62290;59.420;17.842;2022-12-29T09:14:03;1.80;;;0.68;;
14292;SDS011;62290;59.420;17.842;2022-12-29T09:16:32;2.50;;;0.70;;
14292;SDS011;62290;59.420;17.842;2022-12-29T09:19:01;0.93;;;0.52;;
14292;SDS011;62290;59.420;17.842;2022-12-29T09:21:30;0.75;;;0.50;;
14292;SDS011;62290;59.420;17.842;2022-12-29T09:23:58;0.85;;;0.40;;
14292;SDS011;62290;59.420;17.842;2022-12-29T09:26:26;1.55;;;0.60;;
14292;SDS011;62290;59.420;17.842;2022-12-29T09:28:54;0.95;;;0.70;;
14292;SDS011;62290;59.420;17.842;2022-12-29T09:31:23;0.70;;;0.47;;
14292;SDS011;62290;59.420;17.842;2022-12-29T09:33:52;0.77;;;0.50;;
14292;SDS011;62290;59.420;17.842;2022-12-29T09:36:20;1.00;;;0.40;;
14292;SDS011;62290;59.420;17.842;2022-12-29T09:38:49;1.08;;;0.60;;
14292;SDS011;62290;59.420;17.842;2022-12-29T09:41:18;2.63;;;0.52;;
14292;SDS011;62290;59.420;17.842;2022-12-29T09:44:03;0.40;;;0.40;;
14292;SDS011;62290;59.420;17.842;2022-12-29T09:46:40;0.77;;;0.43;;
14292;SDS011;62290;59.420;17.842;2022-12-29T09:49:15;0.93;;;0.40;;
14292;SDS011;62290;59.420;17.842;2022-12-29T09:51:50;1.08;;;0.43;;
14292;SDS011;62290;59.420;17.842;2022-12-29T09:54:23;0.95;;;0.55;;
14292;SDS011;62290;59.420;17.842;2022-12-29T09:57:02;0.63;;;0.40;;
14292;SDS011;62290;59.420;17.842;2022-12-29T09:59:34;1.05;;;0.45;;
14292;SDS011;62290;59.420;17.842;2022-12-29T10:02:12;0.40;;;0.30;;
14292;SDS011;62290;59.420;17.842;2022-12-29T10:04:52;0.52;;;0.40;;
14292;SDS011;62290;59.420;17.842;2022-12-29T10:07:23;0.60;;;0.35;;
14292;SDS011;62290;59.420;17.842;2022-12-29T10:10:12;1.98;;;0.40;;
14292;SDS011;62290;59.420;17.842;2022-12-29T10:12:51;0.30;;;0.30;;
14292;SDS011;62290;59.420;17.842;2022-12-29T10:15:38;0.60;;;0.30;;
14292;SDS011;62290;59.420;17.842;2022-12-29T10:18:18;0.95;;;0.40;;
14292;SDS011;62290;59.420;17.842;2022-12-29T10:20:58;0.40;;;0.40;;
14292;SDS011;62290;59.420;17.842;2022-12-29T10:23:32;0.85;;;0.40;;
14292;SDS011;62290;59.420;17.842;2022-12-29T10:26:03;0.80;;;0.43;;
14292;SDS011;62290;59.420;17.842;2022-12-29T10:28:37;0.82;;;0.40;;
14292;SDS011;62290;59.420;17.842;2022-12-29T10:31:09;0.68;;;0.30;;
14292;SDS011;62290;59.420;17.842;2022-12-29T10:33:42;1.50;;;0.50;;
14292;SDS011;62290;59.420;17.842;2022-12-29T10:36:17;1.40;;;0.40;;
14292;SDS011;62290;59.420;17.842;2022-12-29T10:38:51;0.85;;;0.50;;
14292;SDS011;62290;59.420;17.842;2022-12-29T10:41:28;0.40;;;0.30;;
14292;SDS011;62290;59.420;17.842;2022-12-29T10:44:01;1.20;;;0.50;;
14292;SDS011;62290;59.420;17.842;2022-12-29T10:46:30;0.70;;;0.40;;
14292;SDS011;62290;59.420;17.842;2022-12-29T10:49:02;0.52;;;0.40;;
14292;SDS011;62290;59.420;17.842;2022-12-29T10:51:33;0.77;;;0.35;;
14292;SDS011;62290;59.420;17.842;2022-12-29T10:54:06;0.70;;;0.50;;
14292;SDS011;62290;59.420;17.842;2022-12-29T10:56:42;0.85;;;0.30;;
14292;SDS011;62290;59.420;17.842;2022-12-29T10:59:15;0.30;;;0.30;;
14292;SDS011;62290;59.420;17.842;2022-12-29T11:01:49;1.10;;;0.50;;
14292;SDS011;62290;59.420;17.842;2022-12-29T11:04:29;1.77;;;0.50;;
14292;SDS011;62290;59.420;17.842;2022-12-29T11:07:07;1.50;;;0.32;;
14292;SDS011;62290;59.420;17.842;2022-12-29T11:09:41;0.40;;;0.30;;
14292;SDS011;62290;59.420;17.842;2022-12-29T11:12:18;0.57;;;0.30;;
14292;SDS011;62290;59.420;17.842;2022-12-29T11:14:49;0.43;;;0.32;;
14292;SDS011;62290;59.420;17.842;2022-12-29T11:17:30;0.55;;;0.30;;
14292;SDS011;62290;59.420;17.842;2022-12-29T11:20:19;0.55;;;0.20;;
14292;SDS011;62290;59.420;17.842;2022-12-29T11:22:56;1.50;;;0.40;;
14292;SDS011;62290;59.420;17.842;2022-12-29T11:25:24;1.75;;;0.20;;
14292;SDS011;62290;59.420;17.842;2022-12-29T11:27:55;0.82;;;0.40;;
14292;SDS011;62290;59.420;17.842;2022-12-29T11:30:26;0.63;;;0.40;;
14292;SDS011;62290;59.420;17.842;2022-12-29T11:32:57;0.50;;;0.40;;
14292;SDS011;62290;59.420;17.842;2022-12-29T11:35:33;0.50;;;0.30;;
14292;SDS011;62290;59.420;17.842;2022-12-29T11:38:12;0.57;;;0.40;;
14292;SDS011;62290;59.420;17.842;2022-12-29T11:40:47;0.75;;;0.35;;
14292;SDS011;62290;59.420;17.842;2022-12-29T11:43:18;0.77;;;0.30;;
14292;SDS011;62290;59.420;17.842;2022-12-29T11:45:51;0.85;;;0.50;;
14292;SDS011;62290;59.420;17.842;2022-12-29T11:48:23;1.40;;;0.60;;
14292;SDS011;62290;59.420;17.842;2022-12-29T11:50:56;0.35;;;0.32;;
14292;SDS011;62290;59.420;17.842;2022-12-29T11:53:29;0.40;;;0.40;;
14292;SDS011;62290;59.420;17.842;2022-12-29T11:56:06;0.30;;;0.30;;
14292;SDS011;62290;59.420;17.842;2022-12-29T11:58:37;0.95;;;0.30;;
14292;SDS011;62290;59.420;17.842;2022-12-29T12:01:06;0.40;;;0.40;;
14292;SDS011;62290;59.420;17.842;2022-12-29T12:03:42;1.85;;;0.30;;
14292;SDS011;62290;59.420;17.842;2022-12-29T12:06:16;0.35;;;0.30;;
14292;SDS011;62290;59.420;17.842;2022-12-29T12:08:53;0.40;;;0.28;;
14292;SDS011;62290;59.420;17.842;2022-12-29T12:11:24;1.75;;;0.35;;
14292;SDS011;62290;59.420;17.842;2022-12-29T12:14:02;1.70;;;0.40;;
14292;SDS011;62290;59.420;17.842;2022-12-29T12:17:00;1.27;;;0.45;;
14292;SDS011;62290;59.420;17.842;2022-12-29T12:19:32;1.02;;;0.40;;
14292;SDS011;62290;59.420;17.842;2022-12-29T12:22:07;0.63;;;0.47;;
14292;SDS011;62290;59.420;17.842;2022-12-29T12:24:44;0.88;;;0.50;;
14292;SDS011;62290;59.420;17.842;2022-12-29T12:27:17;0.30;;;0.30;;
14292;SDS011;62290;59.420;17.842;2022-12-29T12:29:50;0.75;;;0.60;;
14292;SDS011;62290;59.420;17.842;2022-12-29T12:32:25;0.50;;;0.45;;
14292;SDS011;62290;59.420;17.842;2022-12-29T12:35:04;1.25;;;0.73;;
14292;SDS011;62290;59.420;17.842;2022-12-29T12:37:44;0.80;;;0.65;;
14292;SDS011;62290;59.420;17.842;2022-12-29T12:43:27;0.60;;;0.50;;
14292;SDS011;62290;59.420;17.842;2022-12-29T12:46:19;1.15;;;0.68;;
14292;SDS011;62290;59.420;17.842;2022-12-29T12:51:59;1.08;;;0.73;;
14292;SDS011;62290;59.420;17.842;2022-12-29T12:54:40;0.90;;;0.70;;
14292;SDS011;62290;59.420;17.842;2022-12-29T12:57:25;1.00;;;0.50;;
14292;SDS011;62290;59.420;17.842;2022-12-29T13:00:07;2.50;;;0.70;;
14292;SDS011;62290;59.420;17.842;2022-12-29T13:02:41;0.70;;;0.68;;
14292;SDS011;62290;59.420;17.842;2022-12-29T13:05:29;0.65;;;0.60;;
14292;SDS011;62290;59.420;17.842;2022-12-29T13:10:59;1.40;;;0.93;;
14292;SDS011;62290;59.420;17.842;2022-12-29T13:13:45;1.38;;;1.00;;
14292;SDS011;62290;59.420;17.842;2022-12-29T13:16:25;2.63;;;0.90;;
14292;SDS011;62290;59.420;17.842;2022-12-29T13:18:59;2.05;;;0.90;;
14292;SDS011;62290;59.420;17.842;2022-12-29T13:21:40;5.43;;;0.93;;
14292;SDS011;62290;59.420;17.842;2022-12-29T13:24:31;2.38;;;0.70;;
14292;SDS011;62290;59.420;17.842;2022-12-29T13:27:09;1.20;;;0.77;;
14292;SDS011;62290;59.420;17.842;2022-12-29T13:29:46;1.02;;;0.80;;
14292;SDS011;62290;59.420;17.842;2022-12-29T13:32:26;0.73;;;0.60;;
14292;SDS011;62290;59.420;17.842;2022-12-29T13:35:07;2.63;;;0.80;;
14292;SDS011;62290;59.420;17.842;2022-12-29T13:37:46;0.70;;;0.70;;
14292;SDS011;62290;59.420;17.842;2022-12-29T13:40:18;1.27;;;0.73;;
14292;SDS011;62290;59.420;17.842;2022-12-29T13:42:51;2.10;;;0.65;;
14292;SDS011;62290;59.420;17.842;2022-12-29T13:45:22;0.52;;;0.40;;
14292;SDS011;62290;59.420;17.842;2022-12-29T13:47:54;1.63;;;0.70;;
14292;SDS011;62290;59.420;17.842;2022-12-29T13:50:28;0.93;;;0.50;;
14292;SDS011;62290;59.420;17.842;2022-12-29T13:53:01;1.13;;;0.50;;
14292;SDS011;62290;59.420;17.842;2022-12-29T13:55:37;0.73;;;0.40;;
14292;SDS011;62290;59.420;17.842;2022-12-29T13:58:13;0.73;;;0.60;;
14292;SDS011;62290;59.420;17.842;2022-12-29T14:00:53;0.65;;;0.47;;
14292;SDS011;62290;59.420;17.842;2022-12-29T14:03:42;0.70;;;0.52;;
14292;SDS011;62290;59.420;17.842;2022-12-29T14:06:15;0.68;;;0.52;;
14292;SDS011;62290;59.420;17.842;2022-12-29T14:08:47;0.50;;;0.50;;
14292;SDS011;62290;59.420;17.842;2022-12-29T14:11:17;0.40;;;0.40;;
14292;SDS011;62290;59.420;17.842;2022-12-29T14:13:50;0.57;;;0.52;;
14292;SDS011;62290;59.420;17.842;2022-12-29T14:16:27;0.82;;;0.55;;
14292;SDS011;62290;59.420;17.842;2022-12-29T14:19:03;0.40;;;0.40;;
14292;SDS011;62290;59.420;17.842;2022-12-29T14:21:38;0.57;;;0.35;;
14292;SDS011;62290;59.420;17.842;2022-12-29T14:24:27;0.52;;;0.40;;
14292;SDS011;62290;59.420;17.842;2022-12-29T14:33:13;0.50;;;0.50;;
14292;SDS011;62290;59.420;17.842;2022-12-29T14:35:42;0.57;;;0.43;;
14292;SDS011;62290;59.420;17.842;2022-12-29T14:38:19;0.75;;;0.32;;
14292;SDS011;62290;59.420;17.842;2022-12-29T14:40:52;1.30;;;0.30;;
14292;SDS011;62290;59.420;17.842;2022-12-29T14:43:53;1.55;;;0.50;;
14292;SDS011;62290;59.420;17.842;2022-12-29T14:46:25;3.00;;;0.50;;
14292;SDS011;62290;59.420;17.842;2022-12-29T14:49:13;0.75;;;0.50;;
14292;SDS011;62290;59.420;17.842;2022-12-29T14:51:44;1.60;;;0.47;;
14292;SDS011;62290;59.420;17.842;2022-12-29T14:57:19;0.98;;;0.43;;
14292;SDS011;62290;59.420;17.842;2022-12-29T15:00:08;0.68;;;0.30;;
14292;SDS011;62290;59.420;17.842;2022-12-29T15:02:45;1.23;;;0.50;;
14292;SDS011;62290;59.420;17.842;2022-12-29T15:05:28;0.70;;;0.47;;
14292;SDS011;62290;59.420;17.842;2022-12-29T15:07:59;0.63;;;0.40;;
14292;SDS011;62290;59.420;17.842;2022-12-29T15:10:32;1.35;;;0.50;;
14292;SDS011;62290;59.420;17.842;2022-12-29T15:13:05;0.95;;;0.50;;
14292;SDS011;62290;59.420;17.842;2022-12-29T15:15:42;0.40;;;0.40;;
14292;SDS011;62290;59.420;17.842;2022-12-29T15:18:14;0.57;;;0.40;;
14292;SDS011;62290;59.420;17.842;2022-12-29T15:20:51;0.68;;;0.52;;
14292;SDS011;62290;59.420;17.842;2022-12-29T15:23:23;0.47;;;0.38;;
14292;SDS011;62290;59.420;17.842;2022-12-29T15:25:53;1.10;;;0.40;;
14292;SDS011;62290;59.420;17.842;2022-12-29T15:28:23;0.40;;;0.40;;
14292;SDS011;62290;59.420;17.842;2022-12-29T15:30:52;1.90;;;0.50;;
14292;SDS011;62290;59.420;17.842;2022-12-29T15:33:22;0.50;;;0.40;;
14292;SDS011;62290;59.420;17.842;2022-12-29T15:35:53;0.40;;;0.40;;
14292;SDS011;62290;59.420;17.842;2022-12-29T15:38:23;3.05;;;0.50;;
14292;SDS011;62290;59.420;17.842;2022-12-29T15:41:04;0.68;;;0.40;;